createdAt,value
2023-01-17T00:02:03.728Z,5.23
2023-01-17T00:04:49.054Z,5.32
2023-01-17T00:07:36.579Z,4.90
2023-01-17T00:10:07.488Z,6.10
2023-01-17T00:12:36.939Z,6.20
2023-01-17T00:15:05.393Z,5.13
2023-01-17T00:17:32.956Z,4.93
2023-01-17T00:20:20.078Z,4.80
2023-01-17T00:23:05.388Z,5.13
2023-01-17T00:25:53.695Z,8.52
2023-01-17T00:28:21.655Z,5.13
2023-01-17T00:30:48.759Z,6.13
2023-01-17T00:33:15.230Z,6.03
2023-01-17T00:35:42.164Z,5.35
2023-01-17T00:38:11.066Z,5.63
2023-01-17T00:40:39.104Z,5.50
2023-01-17T00:43:25.064Z,6.30
2023-01-17T00:46:11.651Z,4.75
2023-01-17T00:48:57.724Z,5.25
2023-01-17T00:51:43.508Z,4.15
2023-01-17T00:54:28.801Z,5.23
2023-01-17T00:57:14.085Z,6.07
2023-01-17T00:59:59.450Z,5.70
2023-01-17T01:02:46.196Z,4.70
2023-01-17T01:05:32.246Z,5.43
2023-01-17T01:08:18.121Z,5.13
2023-01-17T01:11:05.056Z,5.85
2023-01-17T01:13:51.081Z,5.47
2023-01-17T01:16:37.412Z,5.85
2023-01-17T01:19:24.409Z,6.43
2023-01-17T01:22:09.818Z,6.40
2023-01-17T01:24:55.279Z,5.55
2023-01-17T01:27:40.503Z,5.13
2023-01-17T01:30:26.893Z,6.30
2023-01-17T01:33:12.373Z,6.05
2023-01-17T01:35:41.852Z,6.90
2023-01-17T01:38:09.588Z,6.28
2023-01-17T01:40:43.047Z,6.43
2023-01-17T01:43:13.081Z,7.65
2023-01-17T01:45:41.292Z,6.97
2023-01-17T01:48:23.604Z,5.93
2023-01-17T01:50:52.691Z,6.57
2023-01-17T01:53:22.103Z,7.90
2023-01-17T01:55:51.905Z,6.60
2023-01-17T01:58:23.176Z,6.95
2023-01-17T02:00:51.392Z,6.47
2023-01-17T02:03:22.425Z,6.90
2023-01-17T02:05:50.225Z,6.13
2023-01-17T02:08:23.359Z,6.80
2023-01-17T02:10:51.695Z,6.43
2023-01-17T02:13:21.912Z,7.00
2023-01-17T02:15:58.017Z,7.47
2023-01-17T02:18:37.111Z,5.88
2023-01-17T02:21:24.105Z,7.22
2023-01-17T02:24:24.205Z,8.90
2023-01-17T02:26:58.110Z,7.87
2023-01-17T02:30:21.640Z,7.55
2023-01-17T02:33:01.037Z,6.82
2023-01-17T02:35:35.367Z,6.55
2023-01-17T02:38:16.037Z,6.55
2023-01-17T02:40:49.189Z,7.47
2023-01-17T02:43:19.298Z,9.60
2023-01-17T02:45:46.923Z,8.10
2023-01-17T02:48:20.604Z,9.05
2023-01-17T02:51:17.695Z,7.32
2023-01-17T02:54:00.652Z,9.37
2023-01-17T02:56:41.736Z,8.25
2023-01-17T02:59:20.131Z,8.38
2023-01-17T03:02:08.096Z,7.93
2023-01-17T03:04:43.365Z,9.40
2023-01-17T03:07:16.232Z,9.67
2023-01-17T03:09:45.808Z,10.52
2023-01-17T03:12:15.263Z,9.50
2023-01-17T03:14:42.794Z,9.43
2023-01-17T03:17:10.328Z,8.85
2023-01-17T03:19:39.174Z,10.00
2023-01-17T03:22:06.658Z,10.73
2023-01-17T03:24:34.177Z,10.93
2023-01-17T03:27:01.689Z,11.35
2023-01-17T03:29:29.229Z,11.48
2023-01-17T03:31:56.713Z,10.50
2023-01-17T03:34:24.431Z,11.80
2023-01-17T03:36:53.251Z,12.95
2023-01-17T03:39:20.750Z,12.45
2023-01-17T03:41:48.298Z,12.60
2023-01-17T03:44:15.829Z,13.83
2023-01-17T03:46:43.412Z,14.75
2023-01-17T03:49:11.094Z,13.05
2023-01-17T03:51:38.695Z,14.98
2023-01-17T03:54:07.701Z,14.80
2023-01-17T03:56:35.206Z,14.03
2023-01-17T03:59:03.274Z,13.45
2023-01-17T04:01:30.871Z,15.15
2023-01-17T04:03:58.620Z,16.20
2023-01-17T04:06:26.151Z,17.40
2023-01-17T04:08:53.854Z,17.13
2023-01-17T04:11:22.746Z,16.42
2023-01-17T04:13:50.260Z,15.93
2023-01-17T04:16:19.308Z,15.70
2023-01-17T04:18:46.837Z,14.30
2023-01-17T04:21:14.396Z,15.53
2023-01-17T04:23:41.966Z,13.27
2023-01-17T04:26:10.020Z,13.13
2023-01-17T04:28:39.151Z,13.80
2023-01-17T04:31:07.043Z,13.75
2023-01-17T04:33:34.579Z,15.40
2023-01-17T04:36:02.107Z,13.35
2023-01-17T04:38:29.676Z,13.75
2023-01-17T04:40:57.215Z,12.48
2023-01-17T04:43:24.890Z,9.85
2023-01-17T04:45:57.014Z,9.17
2023-01-17T04:48:24.818Z,8.65
2023-01-17T04:50:52.486Z,8.35
2023-01-17T04:53:19.990Z,6.57
2023-01-17T04:55:47.838Z,6.88
2023-01-17T04:58:15.375Z,5.67
2023-01-17T05:00:42.848Z,4.97
2023-01-17T05:03:11.738Z,4.80
2023-01-17T05:05:39.236Z,4.82
2023-01-17T05:08:06.744Z,4.80
2023-01-17T05:10:34.233Z,5.60
2023-01-17T05:13:02.875Z,5.57
2023-01-17T05:15:30.937Z,5.50
2023-01-17T05:17:58.678Z,5.60
2023-01-17T05:20:28.615Z,5.68
2023-01-17T05:22:56.799Z,5.20
2023-01-17T05:25:25.677Z,5.47
2023-01-17T05:27:53.615Z,6.15
2023-01-17T05:30:22.075Z,6.38
2023-01-17T05:32:50.372Z,6.32
2023-01-17T05:35:19.549Z,7.20
2023-01-17T05:37:49.912Z,7.43
2023-01-17T05:40:17.835Z,7.70
2023-01-17T05:42:47.040Z,9.32
2023-01-17T05:45:16.784Z,9.02
2023-01-17T05:47:44.898Z,10.63
2023-01-17T05:50:13.127Z,9.90
2023-01-17T05:52:41.454Z,11.55
2023-01-17T05:55:11.139Z,10.05
2023-01-17T05:57:39.671Z,9.38
2023-01-17T06:00:08.588Z,7.50
2023-01-17T06:02:36.208Z,5.50
2023-01-17T06:05:03.916Z,5.22
2023-01-17T06:07:31.479Z,5.07
2023-01-17T06:09:59.161Z,4.88
2023-01-17T06:12:28.105Z,4.27
2023-01-17T06:14:55.723Z,4.22
2023-01-17T06:17:23.215Z,3.80
2023-01-17T06:19:50.733Z,5.10
2023-01-17T06:22:18.241Z,6.25
2023-01-17T06:24:45.821Z,4.30
2023-01-17T06:27:13.327Z,3.78
2023-01-17T06:29:42.243Z,3.30
2023-01-17T06:32:10.066Z,5.88
2023-01-17T06:34:38.886Z,4.15
2023-01-17T06:37:06.533Z,3.60
2023-01-17T06:39:34.151Z,4.82
2023-01-17T06:42:01.957Z,3.42
2023-01-17T06:44:29.565Z,6.22
2023-01-17T06:46:58.475Z,4.18
2023-01-17T06:49:26.937Z,4.30
2023-01-17T06:51:54.504Z,4.32
2023-01-17T06:54:22.032Z,3.80
2023-01-17T06:56:49.587Z,4.15
2023-01-17T06:59:17.087Z,4.05
2023-01-17T07:01:44.676Z,5.67
2023-01-17T07:04:13.587Z,5.25
2023-01-17T07:06:41.117Z,7.82
2023-01-17T07:09:08.588Z,5.80
2023-01-17T07:11:36.146Z,12.32
2023-01-17T07:14:03.622Z,6.00
2023-01-17T07:16:31.193Z,9.43
2023-01-17T07:18:58.765Z,4.65
2023-01-17T07:21:27.631Z,8.15
2023-01-17T07:23:55.551Z,7.18
2023-01-17T07:26:23.035Z,4.77
2023-01-17T07:28:50.569Z,5.90
2023-01-17T07:31:18.112Z,5.32
2023-01-17T07:33:45.669Z,7.72
2023-01-17T07:36:13.193Z,4.97
2023-01-17T07:38:43.840Z,6.83
2023-01-17T07:41:11.364Z,4.90
2023-01-17T07:43:38.992Z,6.80
2023-01-17T07:46:07.347Z,8.15
2023-01-17T07:48:35.185Z,6.22
2023-01-17T07:51:02.780Z,6.03
2023-01-17T07:53:32.658Z,6.85
2023-01-17T07:56:04.239Z,9.82
2023-01-17T07:58:32.047Z,6.03
2023-01-17T08:01:03.832Z,7.20
2023-01-17T08:03:32.280Z,4.10
2023-01-17T08:06:00.222Z,5.45
2023-01-17T08:08:28.588Z,8.25
2023-01-17T08:10:56.355Z,4.78
2023-01-17T08:13:25.545Z,5.68
2023-01-17T08:15:54.360Z,8.43
2023-01-17T08:18:22.003Z,4.57
2023-01-17T08:20:49.508Z,4.70
2023-01-17T08:23:17.078Z,7.57
2023-01-17T08:25:44.643Z,7.63
2023-01-17T08:28:12.691Z,4.10
2023-01-17T08:30:41.583Z,9.48
2023-01-17T08:33:09.244Z,9.98
2023-01-17T08:35:36.791Z,6.50
2023-01-17T08:38:04.874Z,5.60
2023-01-17T08:40:33.101Z,6.53
2023-01-17T08:43:01.947Z,3.72
2023-01-17T08:45:29.908Z,5.43
2023-01-17T08:48:00.349Z,10.30
2023-01-17T08:50:28.254Z,5.70
2023-01-17T08:53:01.205Z,4.93
2023-01-17T08:55:29.393Z,6.95
2023-01-17T08:57:57.789Z,7.25
2023-01-17T09:00:27.012Z,8.55
2023-01-17T09:02:54.741Z,7.10
2023-01-17T09:05:23.635Z,7.27
2023-01-17T09:07:51.390Z,9.57
2023-01-17T09:10:19.064Z,7.90
2023-01-17T09:12:46.708Z,11.57
2023-01-17T09:15:17.661Z,9.80
2023-01-17T09:17:45.235Z,11.97
2023-01-17T09:20:13.456Z,6.53
2023-01-17T09:22:42.366Z,8.18
2023-01-17T09:25:10.342Z,7.45
2023-01-17T09:27:37.892Z,7.40
2023-01-17T09:30:06.379Z,7.90
2023-01-17T09:32:33.961Z,7.28
2023-01-17T09:35:01.521Z,8.65
2023-01-17T09:37:29.973Z,6.25
2023-01-17T09:39:58.848Z,6.53
2023-01-17T09:42:35.257Z,9.70
2023-01-17T09:45:03.078Z,9.07
2023-01-17T09:47:35.546Z,15.02
2023-01-17T09:50:18.070Z,8.23
2023-01-17T09:52:46.126Z,5.13
2023-01-17T09:55:16.868Z,5.33
2023-01-17T09:57:51.536Z,5.07
2023-01-17T10:00:34.523Z,7.88
2023-01-17T10:03:29.991Z,14.45
2023-01-17T10:06:07.145Z,12.18
2023-01-17T10:09:07.930Z,5.87
2023-01-17T10:11:49.850Z,5.75
2023-01-17T10:14:34.211Z,5.45
2023-01-17T10:17:13.512Z,7.15
2023-01-17T10:19:56.318Z,8.38
2023-01-17T10:22:51.124Z,5.43
2023-01-17T10:25:36.765Z,7.50
2023-01-17T10:28:15.330Z,8.45
2023-01-17T10:30:49.399Z,8.05
2023-01-17T10:33:20.707Z,5.60
2023-01-17T10:35:54.810Z,7.93
2023-01-17T10:38:29.871Z,6.50
2023-01-17T10:41:02.835Z,6.50
2023-01-17T10:43:41.508Z,8.50
2023-01-17T10:46:16.306Z,9.93
2023-01-17T10:48:47.575Z,6.53
2023-01-17T10:51:33.400Z,7.60
2023-01-17T10:54:14.968Z,6.05
2023-01-17T10:56:42.633Z,5.75
2023-01-17T10:59:29.507Z,4.68
2023-01-17T11:01:57.410Z,4.63
2023-01-17T11:04:33.248Z,6.32
2023-01-17T11:07:12.917Z,4.70
2023-01-17T11:09:42.235Z,4.78
2023-01-17T11:12:19.545Z,6.03
2023-01-17T11:14:59.455Z,3.77
2023-01-17T11:17:28.430Z,4.75
2023-01-17T11:20:08.818Z,4.93
2023-01-17T11:22:36.857Z,5.97
2023-01-17T11:25:05.341Z,3.60
2023-01-17T11:27:35.954Z,8.67
2023-01-17T11:30:15.927Z,5.47
2023-01-17T11:32:53.665Z,6.80
2023-01-17T11:35:25.409Z,4.53
2023-01-17T11:37:59.099Z,4.65
2023-01-17T11:40:30.682Z,5.67
2023-01-17T11:43:20.364Z,4.75
2023-01-17T11:46:03.443Z,3.10
2023-01-17T11:48:39.286Z,4.75
2023-01-17T11:51:22.121Z,4.40
2023-01-17T11:53:49.824Z,4.80
2023-01-17T11:56:31.129Z,7.68
2023-01-17T11:59:23.459Z,6.22
2023-01-17T12:02:04.008Z,5.20
2023-01-17T12:04:39.419Z,7.30
2023-01-17T12:07:29.220Z,5.90
2023-01-17T12:10:07.859Z,8.13
2023-01-17T12:13:08.291Z,9.52
2023-01-17T12:15:49.606Z,4.20
2023-01-17T12:18:33.979Z,3.40
2023-01-17T12:21:16.356Z,6.47
2023-01-17T12:24:03.026Z,4.07
2023-01-17T12:26:37.576Z,4.00
2023-01-17T12:29:28.947Z,3.88
2023-01-17T12:32:10.832Z,5.25
2023-01-17T12:34:42.593Z,4.10
2023-01-17T12:37:20.234Z,5.10
2023-01-17T12:39:54.935Z,5.70
2023-01-17T12:42:26.888Z,4.95
2023-01-17T12:44:59.204Z,6.63
2023-01-17T12:47:26.805Z,5.13
2023-01-17T12:50:05.078Z,3.78
2023-01-17T12:52:48.589Z,4.45
2023-01-17T12:55:21.312Z,4.65
2023-01-17T12:57:56.978Z,3.90
2023-01-17T13:00:29.482Z,4.47
2023-01-17T13:03:04.102Z,4.35
2023-01-17T13:05:38.208Z,3.97
2023-01-17T13:08:18.181Z,3.03
2023-01-17T13:10:51.130Z,5.00
2023-01-17T13:13:22.409Z,3.37
2023-01-17T13:15:52.641Z,3.65
2023-01-17T13:18:25.898Z,3.00
2023-01-17T13:21:08.245Z,3.08
2023-01-17T13:23:50.895Z,4.75
2023-01-17T13:26:27.599Z,4.30
2023-01-17T13:29:05.910Z,4.95
2023-01-17T13:31:45.487Z,3.70
2023-01-17T13:34:35.080Z,3.95
2023-01-17T13:37:22.947Z,3.63
2023-01-17T13:40:06.423Z,5.83
2023-01-17T13:42:45.252Z,5.35
2023-01-17T13:45:20.138Z,4.25
2023-01-17T13:47:47.940Z,4.30
2023-01-17T13:50:47.801Z,3.83
2023-01-17T13:53:48.004Z,5.10
2023-01-17T13:56:24.770Z,3.67
2023-01-17T13:58:57.905Z,5.47
2023-01-17T14:01:51.450Z,4.90
2023-01-17T14:04:19.318Z,4.55
2023-01-17T14:06:49.909Z,4.47
2023-01-17T14:09:28.071Z,5.38
2023-01-17T14:12:25.456Z,4.38
2023-01-17T14:14:56.580Z,4.53
2023-01-17T14:17:42.904Z,7.35
2023-01-17T14:20:44.585Z,5.60
2023-01-17T14:23:23.821Z,6.32
2023-01-17T14:25:53.662Z,5.30
2023-01-17T14:28:30.182Z,5.78
2023-01-17T14:30:59.912Z,4.60
2023-01-17T14:33:30.527Z,6.30
2023-01-17T14:36:01.696Z,6.25
2023-01-17T14:38:31.856Z,7.22
2023-01-17T14:41:03.457Z,7.82
2023-01-17T14:43:33.964Z,4.28
2023-01-17T14:46:04.944Z,5.67
2023-01-17T14:48:32.584Z,6.10
2023-01-17T14:51:01.718Z,6.03
2023-01-17T14:53:31.256Z,5.82
2023-01-17T14:56:02.926Z,8.23
2023-01-17T14:58:32.528Z,4.60
2023-01-17T15:01:02.698Z,5.75
2023-01-17T15:03:34.800Z,4.38
2023-01-17T15:06:11.807Z,3.65
2023-01-17T15:08:40.050Z,5.85
2023-01-17T15:11:16.896Z,3.90
2023-01-17T15:13:49.408Z,5.88
2023-01-17T15:16:24.070Z,4.95
2023-01-17T15:18:52.404Z,3.70
2023-01-17T15:21:22.607Z,5.90
2023-01-17T15:23:53.751Z,4.80
2023-01-17T15:26:26.211Z,5.97
2023-01-17T15:28:57.228Z,3.88
2023-01-17T15:31:26.697Z,6.55
2023-01-17T15:33:57.490Z,3.30
2023-01-17T15:36:30.076Z,6.03
2023-01-17T15:39:00.092Z,5.00
2023-01-17T15:41:32.236Z,5.30
2023-01-17T15:44:00.254Z,3.53
2023-01-17T15:46:34.033Z,6.70
2023-01-17T15:49:19.599Z,5.77
2023-01-17T15:51:50.737Z,6.22
2023-01-17T15:54:34.087Z,4.68
2023-01-17T15:57:17.922Z,4.47
2023-01-17T15:59:48.752Z,4.07
2023-01-17T16:02:35.236Z,4.93
2023-01-17T16:05:05.931Z,7.50
2023-01-17T16:07:35.631Z,6.60
2023-01-17T16:10:08.110Z,5.22
2023-01-17T16:12:37.029Z,6.65
2023-01-17T16:15:16.392Z,4.87
2023-01-17T16:17:49.611Z,6.18
2023-01-17T16:20:20.890Z,3.97
2023-01-17T16:22:49.381Z,8.48
2023-01-17T16:25:19.154Z,6.10
2023-01-17T16:27:48.473Z,6.97
2023-01-17T16:30:18.186Z,5.00
2023-01-17T16:32:48.386Z,12.00
2023-01-17T16:35:20.640Z,7.32
2023-01-17T16:37:50.129Z,8.05
2023-01-17T16:40:18.484Z,6.00
2023-01-17T16:42:46.400Z,7.20
2023-01-17T16:45:16.274Z,7.38
2023-01-17T16:47:44.870Z,4.55
2023-01-17T16:50:15.339Z,7.07
2023-01-17T16:52:42.906Z,8.33
2023-01-17T16:55:12.396Z,9.40
2023-01-17T16:57:40.152Z,5.25
2023-01-17T17:00:09.509Z,5.18
2023-01-17T17:02:39.391Z,7.57
2023-01-17T17:05:08.254Z,5.37
2023-01-17T17:07:42.490Z,7.00
2023-01-17T17:10:11.314Z,6.78
2023-01-17T17:12:38.887Z,7.43
2023-01-17T17:15:07.460Z,7.55
2023-01-17T17:17:35.824Z,6.70
2023-01-17T17:20:05.501Z,12.57
2023-01-17T17:22:33.402Z,9.13
2023-01-17T17:25:00.922Z,8.05
2023-01-17T17:27:28.652Z,6.15
2023-01-17T17:29:56.171Z,9.67
2023-01-17T17:32:23.924Z,7.60
2023-01-17T17:34:51.495Z,13.65
2023-01-17T17:37:22.363Z,11.60
2023-01-17T17:39:49.953Z,6.43
2023-01-17T17:42:19.625Z,10.80
2023-01-17T17:44:47.246Z,11.63
2023-01-17T17:47:16.068Z,10.25
2023-01-17T17:49:43.745Z,9.88
2023-01-17T17:52:11.518Z,10.25
2023-01-17T17:54:40.349Z,8.57
2023-01-17T17:57:08.433Z,9.95
2023-01-17T17:59:36.039Z,9.18
2023-01-17T18:02:05.900Z,9.25
2023-01-17T18:04:33.445Z,8.32
2023-01-17T18:07:00.974Z,11.83
2023-01-17T18:09:28.660Z,10.63
2023-01-17T18:11:58.361Z,9.85
2023-01-17T18:14:26.929Z,8.45
2023-01-17T18:16:54.577Z,15.35
2023-01-17T18:19:24.064Z,16.83
2023-01-17T18:21:52.276Z,9.95
2023-01-17T18:24:21.608Z,9.73
2023-01-17T18:26:51.527Z,9.60
2023-01-17T18:29:25.927Z,9.77
2023-01-17T18:31:54.990Z,10.17
2023-01-17T18:34:26.841Z,10.00
2023-01-17T18:36:54.450Z,9.93
2023-01-17T18:39:24.285Z,9.05
2023-01-17T18:41:52.175Z,10.13
2023-01-17T18:44:22.371Z,10.23
2023-01-17T18:46:50.379Z,9.88
2023-01-17T18:49:19.169Z,9.75
2023-01-17T18:51:50.507Z,17.77
2023-01-17T18:54:19.141Z,9.38
2023-01-17T18:56:46.777Z,15.30
2023-01-17T18:59:17.973Z,12.45
2023-01-17T19:01:47.515Z,11.15
2023-01-17T19:04:17.133Z,10.88
2023-01-17T19:06:47.952Z,11.82
2023-01-17T19:09:16.935Z,14.30
2023-01-17T19:11:46.061Z,13.38
2023-01-17T19:14:14.350Z,12.55
2023-01-17T19:16:42.773Z,14.25
2023-01-17T19:19:14.769Z,14.77
2023-01-17T19:21:42.440Z,16.43
2023-01-17T19:24:12.860Z,12.38
2023-01-17T19:26:40.400Z,14.23
2023-01-17T19:29:08.007Z,13.27
2023-01-17T19:31:42.289Z,15.85
2023-01-17T19:34:13.667Z,15.13
2023-01-17T19:36:41.690Z,11.98
2023-01-17T19:39:10.413Z,17.63
2023-01-17T19:41:42.102Z,14.25
2023-01-17T19:44:12.086Z,13.27
2023-01-17T19:46:39.989Z,13.60
2023-01-17T19:49:09.660Z,13.93
2023-01-17T19:51:39.552Z,16.95
2023-01-17T19:54:08.197Z,15.25
2023-01-17T19:56:35.990Z,15.85
2023-01-17T19:59:03.629Z,18.93
2023-01-17T20:01:33.578Z,13.57
2023-01-17T20:04:02.812Z,15.75
2023-01-17T20:06:32.117Z,14.48
2023-01-17T20:09:01.434Z,14.65
2023-01-17T20:11:29.572Z,16.80
2023-01-17T20:13:58.671Z,17.67
2023-01-17T20:16:28.233Z,16.80
2023-01-17T20:18:56.040Z,14.57
2023-01-17T20:21:25.902Z,17.13
2023-01-17T20:23:54.572Z,14.17
2023-01-17T20:26:29.019Z,13.90
2023-01-17T20:28:56.539Z,11.68
2023-01-17T20:31:26.601Z,15.52
2023-01-17T20:33:56.192Z,14.52
2023-01-17T20:36:25.620Z,14.07
2023-01-17T20:38:54.315Z,17.48
2023-01-17T20:41:24.951Z,16.35
2023-01-17T20:43:53.887Z,14.38
2023-01-17T20:46:23.052Z,15.93
2023-01-17T20:48:52.038Z,15.23
2023-01-17T20:51:20.786Z,13.45
2023-01-17T20:53:53.141Z,15.27
2023-01-17T20:56:20.831Z,13.23
2023-01-17T20:58:51.648Z,13.35
2023-01-17T21:01:21.069Z,11.73
2023-01-17T21:03:51.539Z,14.02
2023-01-17T21:06:20.567Z,12.85
2023-01-17T21:08:49.103Z,13.48
2023-01-17T21:11:19.967Z,12.10
2023-01-17T21:13:49.698Z,15.27
2023-01-17T21:16:17.882Z,11.73
2023-01-17T21:18:47.705Z,14.52
2023-01-17T21:21:17.933Z,11.52
2023-01-17T21:23:46.078Z,13.82
2023-01-17T21:26:16.036Z,11.93
2023-01-17T21:28:45.676Z,13.02
2023-01-17T21:31:20.328Z,12.05
2023-01-17T21:33:48.814Z,10.88
2023-01-17T21:36:16.713Z,13.38
2023-01-17T21:38:44.732Z,12.70
2023-01-17T21:41:12.235Z,12.40
2023-01-17T21:43:39.791Z,14.25
2023-01-17T21:46:07.529Z,13.43
2023-01-17T21:48:36.469Z,12.25
2023-01-17T21:51:05.537Z,9.97
2023-01-17T21:53:34.764Z,14.25
2023-01-17T21:56:20.135Z,12.77
2023-01-17T21:58:53.210Z,11.40
2023-01-17T22:01:22.678Z,10.55
2023-01-17T22:03:53.704Z,15.43
2023-01-17T22:06:22.655Z,10.93
2023-01-17T22:08:50.188Z,12.60
2023-01-17T22:11:19.633Z,12.75
2023-01-17T22:13:47.380Z,12.95
2023-01-17T22:16:17.360Z,13.13
2023-01-17T22:18:46.002Z,12.95
2023-01-17T22:21:18.065Z,14.20
2023-01-17T22:23:47.326Z,13.25
2023-01-17T22:26:15.538Z,13.23
2023-01-17T22:28:43.939Z,14.33
2023-01-17T22:31:13.319Z,16.30
2023-01-17T22:33:43.251Z,13.13
2023-01-17T22:36:13.483Z,14.65
2023-01-17T22:38:43.259Z,12.50
2023-01-17T22:41:13.060Z,16.67
2023-01-17T22:43:42.572Z,14.93
2023-01-17T22:46:12.469Z,15.95
2023-01-17T22:48:40.816Z,12.48
2023-01-17T22:51:09.892Z,15.38
2023-01-17T22:53:42.859Z,11.83
2023-01-17T22:56:12.486Z,12.45
2023-01-17T22:58:42.240Z,12.32
2023-01-17T23:01:12.781Z,13.38
2023-01-17T23:03:41.620Z,13.25
2023-01-17T23:06:11.802Z,14.17
2023-01-17T23:08:40.800Z,14.40
2023-01-17T23:11:36.567Z,15.20
2023-01-17T23:14:04.121Z,11.52
2023-01-17T23:16:49.455Z,11.23
2023-01-17T23:19:23.091Z,10.68
2023-01-17T23:22:09.256Z,17.48
2023-01-17T23:24:39.388Z,12.02
2023-01-17T23:27:34.363Z,15.10
2023-01-17T23:30:02.590Z,12.20
2023-01-17T23:32:30.130Z,13.05
2023-01-17T23:34:57.672Z,14.07
2023-01-17T23:37:50.860Z,12.10
2023-01-17T23:40:19.260Z,13.43
2023-01-17T23:43:05.548Z,14.65
2023-01-17T23:45:35.322Z,12.95
2023-01-17T23:48:05.368Z,14.18
2023-01-17T23:50:33.042Z,13.02
2023-01-17T23:53:05.737Z,13.38
2023-01-17T23:55:33.334Z,13.00
2023-01-17T23:58:02.162Z,13.07
